sensor_id;sensor_type;location;lat;lon;timestamp;temperature;humidity
69281;SHT31;56392;51.082;17.080;2022-09-09T00:01:04;17.72;82.23
69281;SHT31;56392;51.082;17.080;2022-09-09T00:06:16;17.66;82.21
69281;SHT31;56392;51.082;17.080;2022-09-09T00:11:26;17.56;82.25
69281;SHT31;56392;51.082;17.080;2022-09-09T00:16:32;17.50;82.40
69281;SHT31;56392;51.082;17.080;2022-09-09T00:21:38;17.42;82.19
69281;SHT31;56392;51.082;17.080;2022-09-09T00:26:45;17.40;82.30
69281;SHT31;56392;51.082;17.080;2022-09-09T00:31:50;17.35;82.53
69281;SHT31;56392;51.082;17.080;2022-09-09T00:36:56;17.33;82.53
69281;SHT31;56392;51.082;17.080;2022-09-09T00:42:10;17.26;82.56
69281;SHT31;56392;51.082;17.080;2022-09-09T00:47:31;17.25;82.34
69281;SHT31;56392;51.082;17.080;2022-09-09T00:52:41;17.21;82.16
69281;SHT31;56392;51.082;17.080;2022-09-09T00:57:51;17.14;82.12
69281;SHT31;56392;51.082;17.080;2022-09-09T01:03:02;17.00;82.25
69281;SHT31;56392;51.082;17.080;2022-09-09T01:08:18;16.88;82.51
69281;SHT31;56392;51.082;17.080;2022-09-09T01:13:29;16.77;82.67
69281;SHT31;56392;51.082;17.080;2022-09-09T01:18:34;16.67;82.85
69281;SHT31;56392;51.082;17.080;2022-09-09T01:24:04;16.61;82.98
69281;SHT31;56392;51.082;17.080;2022-09-09T01:29:14;16.53;82.88
69281;SHT31;56392;51.082;17.080;2022-09-09T01:34:18;16.53;82.91
69281;SHT31;56392;51.082;17.080;2022-09-09T01:39:21;16.50;82.46
69281;SHT31;56392;51.082;17.080;2022-09-09T01:44:26;16.49;82.34
69281;SHT31;56392;51.082;17.080;2022-09-09T01:49:29;16.44;82.31
69281;SHT31;56392;51.082;17.080;2022-09-09T01:54:33;16.36;82.55
69281;SHT31;56392;51.082;17.080;2022-09-09T01:59:48;16.36;82.27
69281;SHT31;56392;51.082;17.080;2022-09-09T02:04:54;16.30;82.44
69281;SHT31;56392;51.082;17.080;2022-09-09T02:10:02;16.29;82.45
69281;SHT31;56392;51.082;17.080;2022-09-09T02:15:15;16.22;82.78
69281;SHT31;56392;51.082;17.080;2022-09-09T02:20:21;16.20;82.99
69281;SHT31;56392;51.082;17.080;2022-09-09T02:25:28;16.19;82.63
69281;SHT31;56392;51.082;17.080;2022-09-09T02:30:34;16.13;82.49
69281;SHT31;56392;51.082;17.080;2022-09-09T02:35:38;16.12;82.43
69281;SHT31;56392;51.082;17.080;2022-09-09T02:40:41;16.03;82.69
69281;SHT31;56392;51.082;17.080;2022-09-09T02:45:52;16.05;82.55
69281;SHT31;56392;51.082;17.080;2022-09-09T02:51:02;15.96;82.44
69281;SHT31;56392;51.082;17.080;2022-09-09T02:56:10;15.99;82.29
69281;SHT31;56392;51.082;17.080;2022-09-09T03:01:17;15.93;81.84
69281;SHT31;56392;51.082;17.080;2022-09-09T03:06:19;15.86;82.31
69281;SHT31;56392;51.082;17.080;2022-09-09T03:11:23;15.77;82.21
69281;SHT31;56392;51.082;17.080;2022-09-09T03:16:26;15.73;82.19
69281;SHT31;56392;51.082;17.080;2022-09-09T03:21:29;15.66;82.40
69281;SHT31;56392;51.082;17.080;2022-09-09T03:26:32;15.63;82.20
69281;SHT31;56392;51.082;17.080;2022-09-09T03:31:36;15.63;82.13
69281;SHT31;56392;51.082;17.080;2022-09-09T03:36:38;15.58;81.87
69281;SHT31;56392;51.082;17.080;2022-09-09T03:41:42;15.47;82.09
69281;SHT31;56392;51.082;17.080;2022-09-09T03:46:48;15.51;81.97
69281;SHT31;56392;51.082;17.080;2022-09-09T03:51:50;15.48;82.05
69281;SHT31;56392;51.082;17.080;2022-09-09T03:56:53;15.42;81.89
69281;SHT31;56392;51.082;17.080;2022-09-09T04:01:57;15.44;82.13
69281;SHT31;56392;51.082;17.080;2022-09-09T04:07:00;15.42;81.91
69281;SHT31;56392;51.082;17.080;2022-09-09T04:12:03;15.42;82.12
69281;SHT31;56392;51.082;17.080;2022-09-09T04:17:08;15.41;82.02
69281;SHT31;56392;51.082;17.080;2022-09-09T04:22:11;15.34;82.26
69281;SHT31;56392;51.082;17.080;2022-09-09T04:27:13;15.40;82.34
69281;SHT31;56392;51.082;17.080;2022-09-09T04:32:17;15.38;82.27
69281;SHT31;56392;51.082;17.080;2022-09-09T04:37:20;15.37;82.36
69281;SHT31;56392;51.082;17.080;2022-09-09T04:42:22;15.35;82.40
69281;SHT31;56392;51.082;17.080;2022-09-09T04:47:26;15.26;82.66
69281;SHT31;56392;51.082;17.080;2022-09-09T04:52:29;15.31;82.76
69281;SHT31;56392;51.082;17.080;2022-09-09T04:57:32;15.34;82.54
69281;SHT31;56392;51.082;17.080;2022-09-09T05:02:38;15.44;82.56
69281;SHT31;56392;51.082;17.080;2022-09-09T05:07:42;15.45;82.58
69281;SHT31;56392;51.082;17.080;2022-09-09T05:12:52;15.45;82.76
69281;SHT31;56392;51.082;17.080;2022-09-09T05:17:58;15.50;83.02
69281;SHT31;56392;51.082;17.080;2022-09-09T05:23:01;15.58;83.21
69281;SHT31;56392;51.082;17.080;2022-09-09T05:28:04;15.61;83.44
69281;SHT31;56392;51.082;17.080;2022-09-09T05:33:08;15.71;83.63
69281;SHT31;56392;51.082;17.080;2022-09-09T05:38:10;15.85;83.70
69281;SHT31;56392;51.082;17.080;2022-09-09T05:43:13;15.99;83.44
69281;SHT31;56392;51.082;17.080;2022-09-09T05:48:17;16.13;83.42
69281;SHT31;56392;51.082;17.080;2022-09-09T05:53:20;16.32;83.61
69281;SHT31;56392;51.082;17.080;2022-09-09T05:58:22;17.10;81.84
69281;SHT31;56392;51.082;17.080;2022-09-09T06:03:26;16.95;82.76
69281;SHT31;56392;51.082;17.080;2022-09-09T06:08:29;17.16;82.65
69281;SHT31;56392;51.082;17.080;2022-09-09T06:13:32;17.38;82.80
69281;SHT31;56392;51.082;17.080;2022-09-09T06:18:36;20.14;75.84
69281;SHT31;56392;51.082;17.080;2022-09-09T06:23:39;21.82;71.52
69281;SHT31;56392;51.082;17.080;2022-09-09T06:28:42;22.83;69.32
69281;SHT31;56392;51.082;17.080;2022-09-09T06:33:47;23.60;66.66
69281;SHT31;56392;51.082;17.080;2022-09-09T06:38:50;24.22;63.13
69281;SHT31;56392;51.082;17.080;2022-09-09T06:43:53;24.59;61.61
69281;SHT31;56392;51.082;17.080;2022-09-09T06:48:58;25.10;61.05
69281;SHT31;56392;51.082;17.080;2022-09-09T06:54:02;25.64;58.32
69281;SHT31;56392;51.082;17.080;2022-09-09T06:59:06;25.98;57.03
69281;SHT31;56392;51.082;17.080;2022-09-09T07:04:13;26.38;57.42
69281;SHT31;56392;51.082;17.080;2022-09-09T07:09:16;26.91;56.25
69281;SHT31;56392;51.082;17.080;2022-09-09T07:14:19;27.11;55.24
69281;SHT31;56392;51.082;17.080;2022-09-09T07:19:24;27.63;54.56
69281;SHT31;56392;51.082;17.080;2022-09-09T07:24:27;28.06;52.87
69281;SHT31;56392;51.082;17.080;2022-09-09T07:29:32;28.51;52.25
69281;SHT31;56392;51.082;17.080;2022-09-09T07:34:36;28.97;52.30
69281;SHT31;56392;51.082;17.080;2022-09-09T07:39:39;29.84;50.31
69281;SHT31;56392;51.082;17.080;2022-09-09T07:44:43;30.88;48.09
69281;SHT31;56392;51.082;17.080;2022-09-09T07:49:48;31.71;45.17
69281;SHT31;56392;51.082;17.080;2022-09-09T07:54:52;32.31;42.90
69281;SHT31;56392;51.082;17.080;2022-09-09T07:59:58;32.07;41.41
69281;SHT31;56392;51.082;17.080;2022-09-09T08:05:07;33.13;39.40
69281;SHT31;56392;51.082;17.080;2022-09-09T08:10:11;33.81;38.37
69281;SHT31;56392;51.082;17.080;2022-09-09T08:15:15;33.95;37.12
69281;SHT31;56392;51.082;17.080;2022-09-09T08:20:20;33.26;37.71
69281;SHT31;56392;51.082;17.080;2022-09-09T08:25:24;33.11;38.30
69281;SHT31;56392;51.082;17.080;2022-09-09T08:30:30;32.84;38.97
69281;SHT31;56392;51.082;17.080;2022-09-09T08:35:34;32.28;39.33
69281;SHT31;56392;51.082;17.080;2022-09-09T08:40:40;31.02;40.99
69281;SHT31;56392;51.082;17.080;2022-09-09T08:45:50;32.38;39.00
69281;SHT31;56392;51.082;17.080;2022-09-09T08:50:59;31.84;39.50
69281;SHT31;56392;51.082;17.080;2022-09-09T08:56:09;31.70;39.14
69281;SHT31;56392;51.082;17.080;2022-09-09T09:01:38;31.16;41.11
69281;SHT31;56392;51.082;17.080;2022-09-09T09:06:50;32.79;36.62
69281;SHT31;56392;51.082;17.080;2022-09-09T09:11:58;34.71;35.19
69281;SHT31;56392;51.082;17.080;2022-09-09T09:17:04;35.31;32.67
69281;SHT31;56392;51.082;17.080;2022-09-09T09:22:16;36.39;31.26
69281;SHT31;56392;51.082;17.080;2022-09-09T09:27:27;36.68;30.31
69281;SHT31;56392;51.082;17.080;2022-09-09T09:32:33;36.20;30.77
69281;SHT31;56392;51.082;17.080;2022-09-09T09:37:42;35.49;32.53
69281;SHT31;56392;51.082;17.080;2022-09-09T09:42:51;34.45;34.04
69281;SHT31;56392;51.082;17.080;2022-09-09T09:47:59;34.05;32.94
69281;SHT31;56392;51.082;17.080;2022-09-09T09:53:04;34.57;32.52
69281;SHT31;56392;51.082;17.080;2022-09-09T09:58:15;34.15;32.96
69281;SHT31;56392;51.082;17.080;2022-09-09T10:03:27;32.96;34.78
69281;SHT31;56392;51.082;17.080;2022-09-09T10:08:34;32.62;35.57
69281;SHT31;56392;51.082;17.080;2022-09-09T10:13:53;32.33;35.67
69281;SHT31;56392;51.082;17.080;2022-09-09T10:19:04;31.31;36.72
69281;SHT31;56392;51.082;17.080;2022-09-09T10:24:29;30.20;37.62
69281;SHT31;56392;51.082;17.080;2022-09-09T10:29:48;29.96;40.13
69281;SHT31;56392;51.082;17.080;2022-09-09T10:34:59;29.46;40.22
69281;SHT31;56392;51.082;17.080;2022-09-09T10:40:19;28.54;41.48
69281;SHT31;56392;51.082;17.080;2022-09-09T10:45:32;28.24;42.76
69281;SHT31;56392;51.082;17.080;2022-09-09T10:50:54;27.93;43.33
69281;SHT31;56392;51.082;17.080;2022-09-09T10:56:04;27.57;43.14
69281;SHT31;56392;51.082;17.080;2022-09-09T11:01:13;27.47;44.12
69281;SHT31;56392;51.082;17.080;2022-09-09T11:06:19;27.37;44.61
69281;SHT31;56392;51.082;17.080;2022-09-09T11:11:29;27.11;44.23
69281;SHT31;56392;51.082;17.080;2022-09-09T11:16:39;26.83;44.04
69281;SHT31;56392;51.082;17.080;2022-09-09T11:21:46;26.67;45.13
69281;SHT31;56392;51.082;17.080;2022-09-09T11:26:53;26.43;44.63
69281;SHT31;56392;51.082;17.080;2022-09-09T11:32:06;26.29;45.33
69281;SHT31;56392;51.082;17.080;2022-09-09T11:37:24;26.19;45.78
69281;SHT31;56392;51.082;17.080;2022-09-09T11:42:34;26.33;46.79
69281;SHT31;56392;51.082;17.080;2022-09-09T11:47:37;26.49;45.89
69281;SHT31;56392;51.082;17.080;2022-09-09T11:52:42;26.59;45.37
69281;SHT31;56392;51.082;17.080;2022-09-09T11:57:48;26.63;44.74
69281;SHT31;56392;51.082;17.080;2022-09-09T12:02:59;26.33;44.56
69281;SHT31;56392;51.082;17.080;2022-09-09T12:08:02;26.06;45.29
69281;SHT31;56392;51.082;17.080;2022-09-09T12:13:16;26.05;45.91
69281;SHT31;56392;51.082;17.080;2022-09-09T12:18:23;26.12;46.03
69281;SHT31;56392;51.082;17.080;2022-09-09T12:23:32;26.14;45.43
69281;SHT31;56392;51.082;17.080;2022-09-09T12:28:47;26.06;46.18
69281;SHT31;56392;51.082;17.080;2022-09-09T12:33:52;25.97;46.09
69281;SHT31;56392;51.082;17.080;2022-09-09T12:38:56;25.77;46.44
69281;SHT31;56392;51.082;17.080;2022-09-09T12:44:05;25.60;46.80
69281;SHT31;56392;51.082;17.080;2022-09-09T12:49:26;25.75;46.55
69281;SHT31;56392;51.082;17.080;2022-09-09T12:54:30;25.84;46.21
69281;SHT31;56392;51.082;17.080;2022-09-09T12:59:39;25.82;45.90
69281;SHT31;56392;51.082;17.080;2022-09-09T13:04:43;25.87;46.49
69281;SHT31;56392;51.082;17.080;2022-09-09T13:09:48;25.81;45.97
69281;SHT31;56392;51.082;17.080;2022-09-09T13:14:54;25.71;46.54
69281;SHT31;56392;51.082;17.080;2022-09-09T13:19:58;25.63;47.03
69281;SHT31;56392;51.082;17.080;2022-09-09T13:25:04;25.66;46.68
69281;SHT31;56392;51.082;17.080;2022-09-09T13:30:21;25.60;47.07
69281;SHT31;56392;51.082;17.080;2022-09-09T13:35:25;25.51;48.01
69281;SHT31;56392;51.082;17.080;2022-09-09T13:40:28;25.46;47.58
69281;SHT31;56392;51.082;17.080;2022-09-09T13:45:34;25.38;51.15
69281;SHT31;56392;51.082;17.080;2022-09-09T13:50:38;25.31;48.54
69281;SHT31;56392;51.082;17.080;2022-09-09T13:55:41;25.40;48.13
69281;SHT31;56392;51.082;17.080;2022-09-09T14:00:45;25.36;47.15
69281;SHT31;56392;51.082;17.080;2022-09-09T14:05:48;25.30;46.73
69281;SHT31;56392;51.082;17.080;2022-09-09T14:10:51;25.09;46.88
69281;SHT31;56392;51.082;17.080;2022-09-09T14:15:58;24.92;47.99
69281;SHT31;56392;51.082;17.080;2022-09-09T14:21:01;24.82;49.13
69281;SHT31;56392;51.082;17.080;2022-09-09T14:26:04;24.62;48.85
69281;SHT31;56392;51.082;17.080;2022-09-09T14:31:08;24.51;49.80
69281;SHT31;56392;51.082;17.080;2022-09-09T14:36:11;24.56;51.79
69281;SHT31;56392;51.082;17.080;2022-09-09T14:41:16;24.51;50.39
69281;SHT31;56392;51.082;17.080;2022-09-09T14:46:23;24.47;50.46
69281;SHT31;56392;51.082;17.080;2022-09-09T14:51:27;24.52;51.40
69281;SHT31;56392;51.082;17.080;2022-09-09T14:56:33;24.58;51.70
69281;SHT31;56392;51.082;17.080;2022-09-09T15:01:37;24.61;51.68
69281;SHT31;56392;51.082;17.080;2022-09-09T15:06:40;24.69;52.87
69281;SHT31;56392;51.082;17.080;2022-09-09T15:11:45;24.64;52.23
69281;SHT31;56392;51.082;17.080;2022-09-09T15:16:49;24.61;52.49
69281;SHT31;56392;51.082;17.080;2022-09-09T15:21:52;24.31;52.49
69281;SHT31;56392;51.082;17.080;2022-09-09T15:26:55;24.10;53.02
69281;SHT31;56392;51.082;17.080;2022-09-09T15:32:00;24.14;53.04
69281;SHT31;56392;51.082;17.080;2022-09-09T15:37:02;24.11;53.61
69281;SHT31;56392;51.082;17.080;2022-09-09T15:42:05;23.92;53.92
69281;SHT31;56392;51.082;17.080;2022-09-09T15:47:12;23.86;53.99
69281;SHT31;56392;51.082;17.080;2022-09-09T15:52:16;23.80;54.57
69281;SHT31;56392;51.082;17.080;2022-09-09T15:57:19;23.71;55.02
69281;SHT31;56392;51.082;17.080;2022-09-09T16:02:23;23.60;54.76
69281;SHT31;56392;51.082;17.080;2022-09-09T16:07:25;23.45;55.24
69281;SHT31;56392;51.082;17.080;2022-09-09T16:12:28;23.33;55.48
69281;SHT31;56392;51.082;17.080;2022-09-09T16:17:32;23.36;57.03
69281;SHT31;56392;51.082;17.080;2022-09-09T16:22:38;23.30;58.45
69281;SHT31;56392;51.082;17.080;2022-09-09T16:27:41;23.26;60.26
69281;SHT31;56392;51.082;17.080;2022-09-09T16:32:46;23.16;61.22
69281;SHT31;56392;51.082;17.080;2022-09-09T16:37:48;23.02;61.53
69281;SHT31;56392;51.082;17.080;2022-09-09T16:42:51;22.90;62.39
69281;SHT31;56392;51.082;17.080;2022-09-09T16:47:55;22.79;62.81
69281;SHT31;56392;51.082;17.080;2022-09-09T16:52:57;22.67;63.47
69281;SHT31;56392;51.082;17.080;2022-09-09T16:58:00;22.61;63.50
69281;SHT31;56392;51.082;17.080;2022-09-09T17:03:04;22.44;63.83
69281;SHT31;56392;51.082;17.080;2022-09-09T17:08:07;22.34;65.10
69281;SHT31;56392;51.082;17.080;2022-09-09T17:13:10;22.23;64.16
69281;SHT31;56392;51.082;17.080;2022-09-09T17:18:15;22.17;63.26
69281;SHT31;56392;51.082;17.080;2022-09-09T17:23:18;22.13;62.02
69281;SHT31;56392;51.082;17.080;2022-09-09T17:28:21;22.09;61.89
69281;SHT31;56392;51.082;17.080;2022-09-09T17:33:29;22.03;61.63
69281;SHT31;56392;51.082;17.080;2022-09-09T17:38:32;21.96;62.32
69281;SHT31;56392;51.082;17.080;2022-09-09T17:43:35;21.88;64.68
69281;SHT31;56392;51.082;17.080;2022-09-09T17:48:41;21.74;65.85
69281;SHT31;56392;51.082;17.080;2022-09-09T17:53:46;21.56;65.26
69281;SHT31;56392;51.082;17.080;2022-09-09T17:58:50;21.49;65.52
69281;SHT31;56392;51.082;17.080;2022-09-09T18:03:55;21.44;65.48
69281;SHT31;56392;51.082;17.080;2022-09-09T18:09:00;21.30;65.27
69281;SHT31;56392;51.082;17.080;2022-09-09T18:14:04;21.32;66.13
69281;SHT31;56392;51.082;17.080;2022-09-09T18:19:10;21.32;65.62
69281;SHT31;56392;51.082;17.080;2022-09-09T18:24:16;21.28;66.53
69281;SHT31;56392;51.082;17.080;2022-09-09T18:29:22;21.24;67.58
69281;SHT31;56392;51.082;17.080;2022-09-09T18:34:27;21.08;68.16
69281;SHT31;56392;51.082;17.080;2022-09-09T18:39:31;20.97;68.54
69281;SHT31;56392;51.082;17.080;2022-09-09T18:44:34;20.88;68.95
69281;SHT31;56392;51.082;17.080;2022-09-09T18:49:38;20.83;69.18
69281;SHT31;56392;51.082;17.080;2022-09-09T18:54:41;20.73;69.33
69281;SHT31;56392;51.082;17.080;2022-09-09T18:59:46;20.62;69.67
69281;SHT31;56392;51.082;17.080;2022-09-09T19:04:51;20.52;69.93
69281;SHT31;56392;51.082;17.080;2022-09-09T19:09:54;20.47;70.22
69281;SHT31;56392;51.082;17.080;2022-09-09T19:14:57;20.45;70.57
69281;SHT31;56392;51.082;17.080;2022-09-09T19:20:03;20.37;70.77
69281;SHT31;56392;51.082;17.080;2022-09-09T19:25:06;20.35;71.13
69281;SHT31;56392;51.082;17.080;2022-09-09T19:30:10;20.29;71.51
69281;SHT31;56392;51.082;17.080;2022-09-09T19:35:15;20.24;71.78
69281;SHT31;56392;51.082;17.080;2022-09-09T19:40:22;20.22;71.66
69281;SHT31;56392;51.082;17.080;2022-09-09T19:45:27;20.21;70.74
69281;SHT31;56392;51.082;17.080;2022-09-09T19:50:34;20.25;70.91
69281;SHT31;56392;51.082;17.080;2022-09-09T19:55:39;20.22;70.32
69281;SHT31;56392;51.082;17.080;2022-09-09T20:00:42;20.19;70.19
69281;SHT31;56392;51.082;17.080;2022-09-09T20:05:48;20.12;70.06
69281;SHT31;56392;51.082;17.080;2022-09-09T20:10:51;20.16;71.17
69281;SHT31;56392;51.082;17.080;2022-09-09T20:15:58;20.06;71.85
69281;SHT31;56392;51.082;17.080;2022-09-09T20:21:04;19.98;72.43
69281;SHT31;56392;51.082;17.080;2022-09-09T20:26:09;19.82;72.88
69281;SHT31;56392;51.082;17.080;2022-09-09T20:31:14;19.77;73.23
69281;SHT31;56392;51.082;17.080;2022-09-09T20:36:20;19.77;73.48
69281;SHT31;56392;51.082;17.080;2022-09-09T20:41:26;19.82;73.46
69281;SHT31;56392;51.082;17.080;2022-09-09T20:46:30;19.84;73.27
69281;SHT31;56392;51.082;17.080;2022-09-09T20:51:35;19.85;73.34
69281;SHT31;56392;51.082;17.080;2022-09-09T20:56:39;19.86;73.48
69281;SHT31;56392;51.082;17.080;2022-09-09T21:01:42;19.89;73.62
69281;SHT31;56392;51.082;17.080;2022-09-09T21:06:49;19.95;74.56
69281;SHT31;56392;51.082;17.080;2022-09-09T21:11:52;19.94;74.25
69281;SHT31;56392;51.082;17.080;2022-09-09T21:16:55;19.86;74.47
69281;SHT31;56392;51.082;17.080;2022-09-09T21:21:59;19.77;74.38
69281;SHT31;56392;51.082;17.080;2022-09-09T21:27:02;19.70;74.58
69281;SHT31;56392;51.082;17.080;2022-09-09T21:32:05;19.61;74.46
69281;SHT31;56392;51.082;17.080;2022-09-09T21:37:09;19.58;75.13
69281;SHT31;56392;51.082;17.080;2022-09-09T21:42:12;19.54;75.36
69281;SHT31;56392;51.082;17.080;2022-09-09T21:47:15;19.49;75.84
69281;SHT31;56392;51.082;17.080;2022-09-09T21:52:19;19.43;76.22
69281;SHT31;56392;51.082;17.080;2022-09-09T21:57:21;19.38;76.79
69281;SHT31;56392;51.082;17.080;2022-09-09T22:02:24;19.35;77.13
69281;SHT31;56392;51.082;17.080;2022-09-09T22:07:29;19.34;77.31
69281;SHT31;56392;51.082;17.080;2022-09-09T22:12:33;19.38;77.94
69281;SHT31;56392;51.082;17.080;2022-09-09T22:17:36;19.40;78.21
69281;SHT31;56392;51.082;17.080;2022-09-09T22:22:40;19.33;78.21
69281;SHT31;56392;51.082;17.080;2022-09-09T22:27:43;19.26;78.22
69281;SHT31;56392;51.082;17.080;2022-09-09T22:32:46;19.22;78.70
69281;SHT31;56392;51.082;17.080;2022-09-09T22:37:50;19.20;78.99
69281;SHT31;56392;51.082;17.080;2022-09-09T22:42:53;19.19;79.34
69281;SHT31;56392;51.082;17.080;2022-09-09T22:47:57;19.10;79.11
69281;SHT31;56392;51.082;17.080;2022-09-09T22:53:01;19.03;79.11
69281;SHT31;56392;51.082;17.080;2022-09-09T22:58:04;18.95;79.00
69281;SHT31;56392;51.082;17.080;2022-09-09T23:03:07;18.86;79.51
69281;SHT31;56392;51.082;17.080;2022-09-09T23:08:10;18.81;79.13
69281;SHT31;56392;51.082;17.080;2022-09-09T23:13:13;18.66;79.26
69281;SHT31;56392;51.082;17.080;2022-09-09T23:18:16;18.49;79.25
69281;SHT31;56392;51.082;17.080;2022-09-09T23:23:20;18.38;79.73
69281;SHT31;56392;51.082;17.080;2022-09-09T23:28:23;18.38;79.94
69281;SHT31;56392;51.082;17.080;2022-09-09T23:33:27;18.32;80.03
69281;SHT31;56392;51.082;17.080;2022-09-09T23:38:31;18.30;80.09
69281;SHT31;56392;51.082;17.080;2022-09-09T23:43:33;18.27;79.96
69281;SHT31;56392;51.082;17.080;2022-09-09T23:48:37;18.37;80.05
69281;SHT31;56392;51.082;17.080;2022-09-09T23:53:41;18.42;80.26
69281;SHT31;56392;51.082;17.080;2022-09-09T23:58:44;18.35;79.69
